sensor_id;sensor_type;location;lat;lon;timestamp;P1;durP1;ratioP1;P2;durP2;ratioP2
21181;SDS011;10749;46.296;7.524;2022-12-07T00:01:30;5.63;;;3.33;;
21181;SDS011;10749;46.296;7.524;2022-12-07T00:04:05;6.20;;;3.30;;
21181;SDS011;10749;46.296;7.524;2022-12-07T00:06:33;4.80;;;2.60;;
21181;SDS011;10749;46.296;7.524;2022-12-07T00:09:07;6.00;;;3.10;;
21181;SDS011;10749;46.296;7.524;2022-12-07T00:11:35;8.43;;;3.50;;
21181;SDS011;10749;46.296;7.524;2022-12-07T00:14:01;6.13;;;3.50;;
21181;SDS011;10749;46.296;7.524;2022-12-07T00:16:30;4.97;;;2.70;;
21181;SDS011;10749;46.296;7.524;2022-12-07T00:18:56;5.50;;;3.00;;
21181;SDS011;10749;46.296;7.524;2022-12-07T00:21:27;5.07;;;2.70;;
21181;SDS011;10749;46.296;7.524;2022-12-07T00:23:54;3.50;;;2.27;;
21181;SDS011;10749;46.296;7.524;2022-12-07T00:26:22;3.40;;;2.43;;
21181;SDS011;10749;46.296;7.524;2022-12-07T00:28:56;4.20;;;3.03;;
21181;SDS011;10749;46.296;7.524;2022-12-07T00:31:26;7.07;;;2.80;;
21181;SDS011;10749;46.296;7.524;2022-12-07T00:33:54;5.33;;;2.83;;
21181;SDS011;10749;46.296;7.524;2022-12-07T00:36:23;5.07;;;2.53;;
21181;SDS011;10749;46.296;7.524;2022-12-07T00:38:49;5.53;;;2.87;;
21181;SDS011;10749;46.296;7.524;2022-12-07T00:41:15;5.70;;;3.07;;
21181;SDS011;10749;46.296;7.524;2022-12-07T00:43:43;5.70;;;2.97;;
21181;SDS011;10749;46.296;7.524;2022-12-07T00:46:10;5.37;;;2.80;;
21181;SDS011;10749;46.296;7.524;2022-12-07T00:48:36;5.73;;;2.87;;
21181;SDS011;10749;46.296;7.524;2022-12-07T00:51:02;5.33;;;3.00;;
21181;SDS011;10749;46.296;7.524;2022-12-07T00:53:28;5.87;;;2.90;;
21181;SDS011;10749;46.296;7.524;2022-12-07T00:55:53;6.27;;;3.27;;
21181;SDS011;10749;46.296;7.524;2022-12-07T00:58:20;4.33;;;3.07;;
21181;SDS011;10749;46.296;7.524;2022-12-07T01:00:46;4.90;;;3.27;;
21181;SDS011;10749;46.296;7.524;2022-12-07T01:03:12;5.40;;;3.10;;
21181;SDS011;10749;46.296;7.524;2022-12-07T01:05:38;7.07;;;2.97;;
21181;SDS011;10749;46.296;7.524;2022-12-07T01:08:04;5.50;;;2.80;;
21181;SDS011;10749;46.296;7.524;2022-12-07T01:10:30;4.27;;;2.83;;
21181;SDS011;10749;46.296;7.524;2022-12-07T01:12:56;3.87;;;2.60;;
21181;SDS011;10749;46.296;7.524;2022-12-07T01:15:23;5.10;;;2.60;;
21181;SDS011;10749;46.296;7.524;2022-12-07T01:17:48;4.73;;;2.90;;
21181;SDS011;10749;46.296;7.524;2022-12-07T01:20:13;5.97;;;2.97;;
21181;SDS011;10749;46.296;7.524;2022-12-07T01:22:41;3.60;;;3.07;;
21181;SDS011;10749;46.296;7.524;2022-12-07T01:25:07;4.93;;;2.43;;
21181;SDS011;10749;46.296;7.524;2022-12-07T01:27:34;5.80;;;2.60;;
21181;SDS011;10749;46.296;7.524;2022-12-07T01:30:00;5.03;;;2.70;;
21181;SDS011;10749;46.296;7.524;2022-12-07T01:32:26;4.73;;;2.67;;
21181;SDS011;10749;46.296;7.524;2022-12-07T01:34:51;5.20;;;2.47;;
21181;SDS011;10749;46.296;7.524;2022-12-07T01:37:17;4.00;;;2.47;;
21181;SDS011;10749;46.296;7.524;2022-12-07T01:39:42;5.00;;;2.93;;
21181;SDS011;10749;46.296;7.524;2022-12-07T01:42:11;5.93;;;2.80;;
21181;SDS011;10749;46.296;7.524;2022-12-07T01:47:40;6.27;;;3.67;;
21181;SDS011;10749;46.296;7.524;2022-12-07T01:50:07;6.00;;;3.10;;
21181;SDS011;10749;46.296;7.524;2022-12-07T01:52:33;5.40;;;3.17;;
21181;SDS011;10749;46.296;7.524;2022-12-07T01:55:03;7.53;;;3.93;;
21181;SDS011;10749;46.296;7.524;2022-12-07T01:57:32;5.40;;;3.40;;
21181;SDS011;10749;46.296;7.524;2022-12-07T01:59:59;5.10;;;3.33;;
21181;SDS011;10749;46.296;7.524;2022-12-07T02:02:26;7.50;;;3.27;;
21181;SDS011;10749;46.296;7.524;2022-12-07T02:04:59;5.87;;;3.00;;
21181;SDS011;10749;46.296;7.524;2022-12-07T02:07:25;6.97;;;3.80;;
21181;SDS011;10749;46.296;7.524;2022-12-07T02:09:52;8.40;;;4.07;;
21181;SDS011;10749;46.296;7.524;2022-12-07T02:12:18;9.00;;;4.30;;
21181;SDS011;10749;46.296;7.524;2022-12-07T02:14:44;7.10;;;3.93;;
21181;SDS011;10749;46.296;7.524;2022-12-07T02:17:28;5.80;;;4.00;;
21181;SDS011;10749;46.296;7.524;2022-12-07T02:20:13;9.33;;;4.23;;
21181;SDS011;10749;46.296;7.524;2022-12-07T02:23:04;6.93;;;4.00;;
21181;SDS011;10749;46.296;7.524;2022-12-07T02:28:36;6.77;;;3.70;;
21181;SDS011;10749;46.296;7.524;2022-12-07T02:31:14;5.40;;;3.33;;
21181;SDS011;10749;46.296;7.524;2022-12-07T02:33:45;4.33;;;3.20;;
21181;SDS011;10749;46.296;7.524;2022-12-07T02:36:28;5.63;;;3.20;;
21181;SDS011;10749;46.296;7.524;2022-12-07T02:38:58;7.03;;;3.20;;
21181;SDS011;10749;46.296;7.524;2022-12-07T02:41:29;5.10;;;3.10;;
21181;SDS011;10749;46.296;7.524;2022-12-07T02:43:59;5.07;;;2.63;;
21181;SDS011;10749;46.296;7.524;2022-12-07T02:46:31;6.63;;;3.50;;
21181;SDS011;10749;46.296;7.524;2022-12-07T02:49:00;5.93;;;3.23;;
21181;SDS011;10749;46.296;7.524;2022-12-07T02:51:29;4.50;;;2.77;;
21181;SDS011;10749;46.296;7.524;2022-12-07T02:53:56;5.23;;;3.00;;
21181;SDS011;10749;46.296;7.524;2022-12-07T03:07:46;5.07;;;3.00;;
21181;SDS011;10749;46.296;7.524;2022-12-07T03:13:24;3.97;;;2.47;;
21181;SDS011;10749;46.296;7.524;2022-12-07T03:18:28;5.67;;;3.20;;
21181;SDS011;10749;46.296;7.524;2022-12-07T03:20:57;5.50;;;3.20;;
21181;SDS011;10749;46.296;7.524;2022-12-07T03:23:26;7.67;;;3.33;;
21181;SDS011;10749;46.296;7.524;2022-12-07T03:25:55;8.30;;;3.43;;
21181;SDS011;10749;46.296;7.524;2022-12-07T03:28:24;6.83;;;3.27;;
21181;SDS011;10749;46.296;7.524;2022-12-07T03:30:56;4.30;;;3.10;;
21181;SDS011;10749;46.296;7.524;2022-12-07T03:33:36;6.43;;;3.77;;
21181;SDS011;10749;46.296;7.524;2022-12-07T03:36:12;7.23;;;3.90;;
21181;SDS011;10749;46.296;7.524;2022-12-07T03:38:46;6.53;;;3.00;;
21181;SDS011;10749;46.296;7.524;2022-12-07T03:41:26;5.73;;;3.30;;
21181;SDS011;10749;46.296;7.524;2022-12-07T03:43:53;6.63;;;3.37;;
21181;SDS011;10749;46.296;7.524;2022-12-07T03:46:23;5.90;;;2.90;;
21181;SDS011;10749;46.296;7.524;2022-12-07T03:49:00;5.20;;;3.30;;
21181;SDS011;10749;46.296;7.524;2022-12-07T03:56:48;5.23;;;3.03;;
21181;SDS011;10749;46.296;7.524;2022-12-07T03:59:15;4.63;;;2.70;;
21181;SDS011;10749;46.296;7.524;2022-12-07T04:01:44;4.70;;;3.00;;
21181;SDS011;10749;46.296;7.524;2022-12-07T04:04:16;4.20;;;2.93;;
21181;SDS011;10749;46.296;7.524;2022-12-07T04:06:41;3.70;;;2.90;;
21181;SDS011;10749;46.296;7.524;2022-12-07T04:09:07;4.70;;;2.83;;
21181;SDS011;10749;46.296;7.524;2022-12-07T04:11:32;6.67;;;3.20;;
21181;SDS011;10749;46.296;7.524;2022-12-07T04:13:57;4.83;;;2.60;;
21181;SDS011;10749;46.296;7.524;2022-12-07T04:16:41;5.10;;;2.77;;
21181;SDS011;10749;46.296;7.524;2022-12-07T04:19:06;3.83;;;2.93;;
21181;SDS011;10749;46.296;7.524;2022-12-07T04:21:32;5.10;;;2.57;;
21181;SDS011;10749;46.296;7.524;2022-12-07T04:23:57;5.20;;;2.90;;
21181;SDS011;10749;46.296;7.524;2022-12-07T04:26:22;4.70;;;2.80;;
21181;SDS011;10749;46.296;7.524;2022-12-07T04:28:48;5.33;;;2.60;;
21181;SDS011;10749;46.296;7.524;2022-12-07T04:31:13;4.73;;;3.03;;
21181;SDS011;10749;46.296;7.524;2022-12-07T04:33:38;6.23;;;2.83;;
21181;SDS011;10749;46.296;7.524;2022-12-07T04:36:04;4.60;;;2.70;;
21181;SDS011;10749;46.296;7.524;2022-12-07T04:38:29;5.33;;;3.20;;
21181;SDS011;10749;46.296;7.524;2022-12-07T04:40:54;5.07;;;3.23;;
21181;SDS011;10749;46.296;7.524;2022-12-07T04:43:20;4.23;;;3.10;;
21181;SDS011;10749;46.296;7.524;2022-12-07T04:45:48;7.73;;;3.07;;
21181;SDS011;10749;46.296;7.524;2022-12-07T04:48:14;4.87;;;2.97;;
21181;SDS011;10749;46.296;7.524;2022-12-07T04:50:40;4.63;;;3.30;;
21181;SDS011;10749;46.296;7.524;2022-12-07T04:53:05;5.93;;;3.33;;
21181;SDS011;10749;46.296;7.524;2022-12-07T04:55:30;5.97;;;3.47;;
21181;SDS011;10749;46.296;7.524;2022-12-07T04:57:56;5.40;;;3.27;;
21181;SDS011;10749;46.296;7.524;2022-12-07T05:00:21;5.30;;;3.00;;
21181;SDS011;10749;46.296;7.524;2022-12-07T05:02:46;4.57;;;3.20;;
21181;SDS011;10749;46.296;7.524;2022-12-07T05:05:11;6.50;;;3.70;;
21181;SDS011;10749;46.296;7.524;2022-12-07T05:07:37;5.93;;;3.00;;
21181;SDS011;10749;46.296;7.524;2022-12-07T05:10:02;5.53;;;3.30;;
21181;SDS011;10749;46.296;7.524;2022-12-07T05:12:28;5.53;;;2.90;;
21181;SDS011;10749;46.296;7.524;2022-12-07T05:14:53;4.47;;;2.87;;
21181;SDS011;10749;46.296;7.524;2022-12-07T05:17:18;6.30;;;3.07;;
21181;SDS011;10749;46.296;7.524;2022-12-07T05:19:44;5.67;;;3.20;;
21181;SDS011;10749;46.296;7.524;2022-12-07T05:22:09;4.73;;;3.00;;
21181;SDS011;10749;46.296;7.524;2022-12-07T05:24:35;5.57;;;3.40;;
21181;SDS011;10749;46.296;7.524;2022-12-07T05:27:00;6.07;;;3.23;;
21181;SDS011;10749;46.296;7.524;2022-12-07T05:29:26;5.20;;;2.97;;
21181;SDS011;10749;46.296;7.524;2022-12-07T05:31:51;5.67;;;3.10;;
21181;SDS011;10749;46.296;7.524;2022-12-07T05:34:16;4.90;;;3.00;;
21181;SDS011;10749;46.296;7.524;2022-12-07T05:36:41;4.83;;;3.10;;
21181;SDS011;10749;46.296;7.524;2022-12-07T05:39:07;5.17;;;3.10;;
21181;SDS011;10749;46.296;7.524;2022-12-07T05:41:32;5.00;;;3.03;;
21181;SDS011;10749;46.296;7.524;2022-12-07T05:44:16;5.13;;;3.60;;
21181;SDS011;10749;46.296;7.524;2022-12-07T05:46:42;7.87;;;3.80;;
21181;SDS011;10749;46.296;7.524;2022-12-07T05:49:07;9.07;;;4.13;;
21181;SDS011;10749;46.296;7.524;2022-12-07T05:51:32;8.13;;;4.87;;
21181;SDS011;10749;46.296;7.524;2022-12-07T05:53:58;7.37;;;5.00;;
21181;SDS011;10749;46.296;7.524;2022-12-07T05:56:23;9.10;;;3.83;;
21181;SDS011;10749;46.296;7.524;2022-12-07T05:58:49;7.60;;;3.80;;
21181;SDS011;10749;46.296;7.524;2022-12-07T06:01:33;8.20;;;3.80;;
21181;SDS011;10749;46.296;7.524;2022-12-07T06:03:58;7.13;;;3.57;;
21181;SDS011;10749;46.296;7.524;2022-12-07T06:06:24;4.47;;;3.20;;
21181;SDS011;10749;46.296;7.524;2022-12-07T06:08:49;5.53;;;3.30;;
21181;SDS011;10749;46.296;7.524;2022-12-07T06:11:14;7.63;;;3.43;;
21181;SDS011;10749;46.296;7.524;2022-12-07T06:13:59;4.60;;;3.00;;
21181;SDS011;10749;46.296;7.524;2022-12-07T06:16:24;5.40;;;3.20;;
21181;SDS011;10749;46.296;7.524;2022-12-07T06:18:49;5.70;;;3.57;;
21181;SDS011;10749;46.296;7.524;2022-12-07T06:21:15;9.53;;;4.47;;
21181;SDS011;10749;46.296;7.524;2022-12-07T06:23:40;5.97;;;3.80;;
21181;SDS011;10749;46.296;7.524;2022-12-07T06:26:05;5.07;;;3.50;;
21181;SDS011;10749;46.296;7.524;2022-12-07T06:28:30;5.60;;;3.40;;
21181;SDS011;10749;46.296;7.524;2022-12-07T06:30:57;7.07;;;3.03;;
21181;SDS011;10749;46.296;7.524;2022-12-07T06:33:23;6.17;;;3.67;;
21181;SDS011;10749;46.296;7.524;2022-12-07T06:35:48;6.20;;;4.10;;
21181;SDS011;10749;46.296;7.524;2022-12-07T06:38:14;6.83;;;3.40;;
21181;SDS011;10749;46.296;7.524;2022-12-07T06:40:39;6.30;;;3.47;;
21181;SDS011;10749;46.296;7.524;2022-12-07T06:43:04;7.87;;;4.30;;
21181;SDS011;10749;46.296;7.524;2022-12-07T06:45:29;8.70;;;4.43;;
21181;SDS011;10749;46.296;7.524;2022-12-07T06:47:55;6.47;;;3.90;;
21181;SDS011;10749;46.296;7.524;2022-12-07T06:50:20;6.93;;;4.60;;
21181;SDS011;10749;46.296;7.524;2022-12-07T06:52:45;7.33;;;3.97;;
21181;SDS011;10749;46.296;7.524;2022-12-07T06:55:10;7.57;;;3.90;;
21181;SDS011;10749;46.296;7.524;2022-12-07T06:57:36;5.77;;;3.70;;
21181;SDS011;10749;46.296;7.524;2022-12-07T07:00:02;7.37;;;3.40;;
21181;SDS011;10749;46.296;7.524;2022-12-07T07:02:28;5.57;;;3.40;;
21181;SDS011;10749;46.296;7.524;2022-12-07T07:04:53;8.70;;;3.57;;
21181;SDS011;10749;46.296;7.524;2022-12-07T07:07:18;5.13;;;3.67;;
21181;SDS011;10749;46.296;7.524;2022-12-07T07:09:44;6.67;;;4.17;;
21181;SDS011;10749;46.296;7.524;2022-12-07T07:12:09;6.73;;;4.03;;
21181;SDS011;10749;46.296;7.524;2022-12-07T07:14:34;5.70;;;3.97;;
21181;SDS011;10749;46.296;7.524;2022-12-07T07:16:59;6.23;;;4.20;;
21181;SDS011;10749;46.296;7.524;2022-12-07T07:19:25;8.23;;;4.27;;
21181;SDS011;10749;46.296;7.524;2022-12-07T07:21:50;4.67;;;3.57;;
21181;SDS011;10749;46.296;7.524;2022-12-07T07:24:15;8.03;;;4.07;;
21181;SDS011;10749;46.296;7.524;2022-12-07T07:26:41;8.87;;;3.97;;
21181;SDS011;10749;46.296;7.524;2022-12-07T07:29:06;6.43;;;3.70;;
21181;SDS011;10749;46.296;7.524;2022-12-07T07:31:31;6.03;;;3.67;;
21181;SDS011;10749;46.296;7.524;2022-12-07T07:33:56;10.90;;;4.47;;
21181;SDS011;10749;46.296;7.524;2022-12-07T07:36:22;34.70;;;12.80;;
21181;SDS011;10749;46.296;7.524;2022-12-07T07:38:47;28.77;;;13.00;;
21181;SDS011;10749;46.296;7.524;2022-12-07T07:41:12;23.97;;;10.23;;
21181;SDS011;10749;46.296;7.524;2022-12-07T07:43:38;11.40;;;5.50;;
21181;SDS011;10749;46.296;7.524;2022-12-07T08:19:42;6.63;;;3.83;;
21181;SDS011;10749;46.296;7.524;2022-12-07T08:22:07;9.67;;;4.40;;
21181;SDS011;10749;46.296;7.524;2022-12-07T08:24:33;10.53;;;3.70;;
21181;SDS011;10749;46.296;7.524;2022-12-07T08:26:59;8.57;;;3.73;;
21181;SDS011;10749;46.296;7.524;2022-12-07T08:29:24;9.30;;;3.83;;
21181;SDS011;10749;46.296;7.524;2022-12-07T08:31:50;6.83;;;4.20;;
21181;SDS011;10749;46.296;7.524;2022-12-07T08:34:15;12.07;;;4.97;;
21181;SDS011;10749;46.296;7.524;2022-12-07T08:36:40;11.63;;;4.57;;
21181;SDS011;10749;46.296;7.524;2022-12-07T08:39:06;8.13;;;4.30;;
21181;SDS011;10749;46.296;7.524;2022-12-07T08:41:31;7.60;;;3.40;;
21181;SDS011;10749;46.296;7.524;2022-12-07T08:43:57;6.53;;;3.80;;
21181;SDS011;10749;46.296;7.524;2022-12-07T08:46:26;10.70;;;5.37;;
21181;SDS011;10749;46.296;7.524;2022-12-07T08:49:02;16.10;;;7.70;;
21181;SDS011;10749;46.296;7.524;2022-12-07T08:51:31;14.07;;;6.70;;
21181;SDS011;10749;46.296;7.524;2022-12-07T08:53:57;15.87;;;6.53;;
21181;SDS011;10749;46.296;7.524;2022-12-07T08:56:25;13.33;;;6.43;;
21181;SDS011;10749;46.296;7.524;2022-12-07T08:58:51;7.83;;;4.10;;
21181;SDS011;10749;46.296;7.524;2022-12-07T09:01:17;5.50;;;2.90;;
21181;SDS011;10749;46.296;7.524;2022-12-07T09:03:42;6.67;;;3.27;;
21181;SDS011;10749;46.296;7.524;2022-12-07T09:06:07;5.47;;;3.03;;
21181;SDS011;10749;46.296;7.524;2022-12-07T09:08:34;5.93;;;2.90;;
21181;SDS011;10749;46.296;7.524;2022-12-07T09:11:03;3.87;;;2.40;;
21181;SDS011;10749;46.296;7.524;2022-12-07T09:13:28;5.67;;;2.93;;
21181;SDS011;10749;46.296;7.524;2022-12-07T09:15:54;12.47;;;3.93;;
21181;SDS011;10749;46.296;7.524;2022-12-07T09:18:19;6.93;;;3.77;;
21181;SDS011;10749;46.296;7.524;2022-12-07T09:20:44;12.07;;;3.93;;
21181;SDS011;10749;46.296;7.524;2022-12-07T09:23:10;7.83;;;3.30;;
21181;SDS011;10749;46.296;7.524;2022-12-07T09:25:35;7.07;;;3.20;;
21181;SDS011;10749;46.296;7.524;2022-12-07T09:28:00;9.10;;;3.17;;
21181;SDS011;10749;46.296;7.524;2022-12-07T09:30:26;5.47;;;3.07;;
21181;SDS011;10749;46.296;7.524;2022-12-07T09:32:55;6.53;;;3.00;;
21181;SDS011;10749;46.296;7.524;2022-12-07T09:35:21;6.13;;;3.40;;
21181;SDS011;10749;46.296;7.524;2022-12-07T09:37:47;8.67;;;3.27;;
21181;SDS011;10749;46.296;7.524;2022-12-07T09:40:13;14.67;;;3.47;;
21181;SDS011;10749;46.296;7.524;2022-12-07T09:42:41;10.73;;;3.33;;
21181;SDS011;10749;46.296;7.524;2022-12-07T09:45:18;10.13;;;3.30;;
21181;SDS011;10749;46.296;7.524;2022-12-07T09:47:47;8.80;;;3.13;;
21181;SDS011;10749;46.296;7.524;2022-12-07T09:50:14;7.87;;;3.53;;
21181;SDS011;10749;46.296;7.524;2022-12-07T09:52:43;7.93;;;3.50;;
21181;SDS011;10749;46.296;7.524;2022-12-07T09:55:15;6.47;;;3.80;;
21181;SDS011;10749;46.296;7.524;2022-12-07T09:57:47;6.63;;;4.07;;
21181;SDS011;10749;46.296;7.524;2022-12-07T10:00:14;8.63;;;4.93;;
21181;SDS011;10749;46.296;7.524;2022-12-07T10:02:43;12.93;;;5.97;;
21181;SDS011;10749;46.296;7.524;2022-12-07T10:05:22;12.93;;;5.57;;
21181;SDS011;10749;46.296;7.524;2022-12-07T10:07:59;12.80;;;5.97;;
21181;SDS011;10749;46.296;7.524;2022-12-07T10:10:26;11.33;;;6.17;;
21181;SDS011;10749;46.296;7.524;2022-12-07T10:12:56;16.40;;;6.60;;
21181;SDS011;10749;46.296;7.524;2022-12-07T10:15:46;16.40;;;6.17;;
21181;SDS011;10749;46.296;7.524;2022-12-07T10:21:03;14.70;;;6.80;;
21181;SDS011;10749;46.296;7.524;2022-12-07T10:23:39;10.10;;;6.20;;
21181;SDS011;10749;46.296;7.524;2022-12-07T10:26:27;16.10;;;6.10;;
21181;SDS011;10749;46.296;7.524;2022-12-07T10:28:56;13.87;;;6.60;;
21181;SDS011;10749;46.296;7.524;2022-12-07T10:31:25;12.00;;;5.97;;
21181;SDS011;10749;46.296;7.524;2022-12-07T10:41:51;14.43;;;6.20;;
21181;SDS011;10749;46.296;7.524;2022-12-07T10:44:21;11.37;;;5.30;;
21181;SDS011;10749;46.296;7.524;2022-12-07T10:52:08;8.87;;;5.17;;
21181;SDS011;10749;46.296;7.524;2022-12-07T10:55:01;11.13;;;5.60;;
21181;SDS011;10749;46.296;7.524;2022-12-07T10:57:42;11.37;;;5.43;;
21181;SDS011;10749;46.296;7.524;2022-12-07T11:00:23;9.27;;;5.83;;
21181;SDS011;10749;46.296;7.524;2022-12-07T11:22:03;8.93;;;5.17;;
21181;SDS011;10749;46.296;7.524;2022-12-07T11:25:18;9.93;;;4.80;;
21181;SDS011;10749;46.296;7.524;2022-12-07T11:30:20;6.20;;;4.20;;
21181;SDS011;10749;46.296;7.524;2022-12-07T11:33:22;5.77;;;4.10;;
21181;SDS011;10749;46.296;7.524;2022-12-07T11:39:04;8.10;;;4.50;;
21181;SDS011;10749;46.296;7.524;2022-12-07T11:41:40;7.67;;;4.37;;
21181;SDS011;10749;46.296;7.524;2022-12-07T11:44:11;7.90;;;3.97;;
21181;SDS011;10749;46.296;7.524;2022-12-07T11:52:43;6.40;;;4.37;;
21181;SDS011;10749;46.296;7.524;2022-12-07T11:55:21;7.43;;;4.67;;
21181;SDS011;10749;46.296;7.524;2022-12-07T11:57:54;6.83;;;4.83;;
21181;SDS011;10749;46.296;7.524;2022-12-07T12:00:26;6.47;;;4.70;;
21181;SDS011;10749;46.296;7.524;2022-12-07T12:02:55;7.57;;;4.77;;
21181;SDS011;10749;46.296;7.524;2022-12-07T12:05:27;7.17;;;4.47;;
21181;SDS011;10749;46.296;7.524;2022-12-07T12:21:55;9.97;;;5.20;;
21181;SDS011;10749;46.296;7.524;2022-12-07T12:24:30;8.73;;;5.43;;
21181;SDS011;10749;46.296;7.524;2022-12-07T12:27:08;10.27;;;5.40;;
21181;SDS011;10749;46.296;7.524;2022-12-07T12:29:41;9.07;;;5.60;;
21181;SDS011;10749;46.296;7.524;2022-12-07T12:37:40;8.13;;;5.70;;
21181;SDS011;10749;46.296;7.524;2022-12-07T12:42:47;9.70;;;5.90;;
21181;SDS011;10749;46.296;7.524;2022-12-07T12:48:03;9.47;;;6.03;;
21181;SDS011;10749;46.296;7.524;2022-12-07T12:53:03;11.40;;;6.73;;
21181;SDS011;10749;46.296;7.524;2022-12-07T12:58:21;12.17;;;6.73;;
21181;SDS011;10749;46.296;7.524;2022-12-07T13:03:57;10.53;;;7.90;;
21181;SDS011;10749;46.296;7.524;2022-12-07T13:08:51;12.70;;;8.73;;
21181;SDS011;10749;46.296;7.524;2022-12-07T13:11:20;12.00;;;8.40;;
21181;SDS011;10749;46.296;7.524;2022-12-07T13:14:27;13.47;;;8.40;;
21181;SDS011;10749;46.296;7.524;2022-12-07T13:16:58;14.30;;;8.97;;
21181;SDS011;10749;46.296;7.524;2022-12-07T13:22:48;13.27;;;8.57;;
21181;SDS011;10749;46.296;7.524;2022-12-07T13:25:08;13.63;;;9.17;;
21181;SDS011;10749;46.296;7.524;2022-12-07T13:27:39;15.07;;;10.27;;
21181;SDS011;10749;46.296;7.524;2022-12-07T13:30:13;12.63;;;9.80;;
21181;SDS011;10749;46.296;7.524;2022-12-07T13:32:41;17.57;;;9.67;;
21181;SDS011;10749;46.296;7.524;2022-12-07T13:38:05;14.07;;;9.53;;
21181;SDS011;10749;46.296;7.524;2022-12-07T13:40:40;15.03;;;10.30;;
21181;SDS011;10749;46.296;7.524;2022-12-07T13:43:19;15.27;;;10.03;;
21181;SDS011;10749;46.296;7.524;2022-12-07T13:45:44;16.87;;;10.23;;
21181;SDS011;10749;46.296;7.524;2022-12-07T13:50:54;16.30;;;10.30;;
21181;SDS011;10749;46.296;7.524;2022-12-07T13:53:21;16.97;;;10.73;;
21181;SDS011;10749;46.296;7.524;2022-12-07T13:55:46;14.73;;;9.80;;
21181;SDS011;10749;46.296;7.524;2022-12-07T13:58:12;17.60;;;10.77;;
21181;SDS011;10749;46.296;7.524;2022-12-07T14:00:39;16.23;;;9.80;;
21181;SDS011;10749;46.296;7.524;2022-12-07T14:05:36;16.97;;;10.33;;
21181;SDS011;10749;46.296;7.524;2022-12-07T14:08:21;15.23;;;9.93;;
21181;SDS011;10749;46.296;7.524;2022-12-07T14:16:05;17.27;;;9.67;;
21181;SDS011;10749;46.296;7.524;2022-12-07T14:18:40;14.00;;;9.50;;
21181;SDS011;10749;46.296;7.524;2022-12-07T14:21:14;15.23;;;9.27;;
21181;SDS011;10749;46.296;7.524;2022-12-07T14:23:43;12.47;;;8.50;;
21181;SDS011;10749;46.296;7.524;2022-12-07T14:26:12;11.40;;;8.60;;
21181;SDS011;10749;46.296;7.524;2022-12-07T14:28:44;12.67;;;9.57;;
21181;SDS011;10749;46.296;7.524;2022-12-07T14:31:13;17.63;;;9.60;;
21181;SDS011;10749;46.296;7.524;2022-12-07T14:33:41;15.53;;;8.67;;
21181;SDS011;10749;46.296;7.524;2022-12-07T14:36:10;14.07;;;8.80;;
21181;SDS011;10749;46.296;7.524;2022-12-07T14:38:37;13.83;;;8.67;;
21181;SDS011;10749;46.296;7.524;2022-12-07T14:41:03;12.37;;;8.67;;
21181;SDS011;10749;46.296;7.524;2022-12-07T14:43:48;12.17;;;7.97;;
21181;SDS011;10749;46.296;7.524;2022-12-07T14:46:14;14.87;;;8.57;;
21181;SDS011;10749;46.296;7.524;2022-12-07T14:48:39;13.57;;;9.40;;
21181;SDS011;10749;46.296;7.524;2022-12-07T14:51:04;14.53;;;9.03;;
21181;SDS011;10749;46.296;7.524;2022-12-07T14:53:31;13.83;;;8.73;;
21181;SDS011;10749;46.296;7.524;2022-12-07T14:56:00;16.07;;;9.50;;
21181;SDS011;10749;46.296;7.524;2022-12-07T14:58:26;13.17;;;8.57;;
21181;SDS011;10749;46.296;7.524;2022-12-07T15:00:51;13.13;;;8.47;;
21181;SDS011;10749;46.296;7.524;2022-12-07T15:03:16;15.50;;;8.47;;
21181;SDS011;10749;46.296;7.524;2022-12-07T15:05:41;16.93;;;8.37;;
21181;SDS011;10749;46.296;7.524;2022-12-07T15:08:11;12.67;;;8.43;;
21181;SDS011;10749;46.296;7.524;2022-12-07T15:10:37;14.27;;;8.60;;
21181;SDS011;10749;46.296;7.524;2022-12-07T15:13:04;13.23;;;8.50;;
21181;SDS011;10749;46.296;7.524;2022-12-07T15:15:48;11.60;;;8.27;;
21181;SDS011;10749;46.296;7.524;2022-12-07T15:18:15;11.43;;;8.17;;
21181;SDS011;10749;46.296;7.524;2022-12-07T15:20:41;18.60;;;9.20;;
21181;SDS011;10749;46.296;7.524;2022-12-07T15:23:07;14.07;;;8.63;;
21181;SDS011;10749;46.296;7.524;2022-12-07T15:25:32;16.37;;;8.73;;
21181;SDS011;10749;46.296;7.524;2022-12-07T15:27:58;13.40;;;8.80;;
21181;SDS011;10749;46.296;7.524;2022-12-07T15:30:25;14.00;;;9.07;;
21181;SDS011;10749;46.296;7.524;2022-12-07T15:32:50;13.00;;;8.17;;
21181;SDS011;10749;46.296;7.524;2022-12-07T15:35:17;14.47;;;9.33;;
21181;SDS011;10749;46.296;7.524;2022-12-07T15:37:43;13.80;;;9.87;;
21181;SDS011;10749;46.296;7.524;2022-12-07T15:40:09;15.43;;;10.13;;
21181;SDS011;10749;46.296;7.524;2022-12-07T15:42:35;20.67;;;10.40;;
21181;SDS011;10749;46.296;7.524;2022-12-07T15:45:01;20.10;;;9.13;;
21181;SDS011;10749;46.296;7.524;2022-12-07T15:47:39;14.80;;;9.50;;
21181;SDS011;10749;46.296;7.524;2022-12-07T15:50:06;13.77;;;8.83;;
21181;SDS011;10749;46.296;7.524;2022-12-07T15:52:34;16.70;;;8.67;;
21181;SDS011;10749;46.296;7.524;2022-12-07T15:55:00;14.07;;;9.13;;
21181;SDS011;10749;46.296;7.524;2022-12-07T15:57:27;17.50;;;9.63;;
21181;SDS011;10749;46.296;7.524;2022-12-07T15:59:53;18.87;;;10.03;;
21181;SDS011;10749;46.296;7.524;2022-12-07T16:02:18;15.07;;;9.30;;
21181;SDS011;10749;46.296;7.524;2022-12-07T16:04:44;14.47;;;9.17;;
21181;SDS011;10749;46.296;7.524;2022-12-07T16:07:10;16.50;;;10.30;;
21181;SDS011;10749;46.296;7.524;2022-12-07T16:09:36;15.13;;;10.20;;
21181;SDS011;10749;46.296;7.524;2022-12-07T16:12:02;16.40;;;10.77;;
21181;SDS011;10749;46.296;7.524;2022-12-07T16:14:28;20.37;;;11.23;;
21181;SDS011;10749;46.296;7.524;2022-12-07T16:16:53;20.07;;;11.37;;
21181;SDS011;10749;46.296;7.524;2022-12-07T16:19:18;17.13;;;11.33;;
21181;SDS011;10749;46.296;7.524;2022-12-07T16:21:44;21.03;;;11.87;;
21181;SDS011;10749;46.296;7.524;2022-12-07T16:24:09;16.33;;;9.97;;
21181;SDS011;10749;46.296;7.524;2022-12-07T16:26:35;20.57;;;10.77;;
21181;SDS011;10749;46.296;7.524;2022-12-07T16:29:01;16.43;;;10.30;;
21181;SDS011;10749;46.296;7.524;2022-12-07T16:31:26;16.87;;;10.73;;
21181;SDS011;10749;46.296;7.524;2022-12-07T16:33:53;16.80;;;10.30;;
21181;SDS011;10749;46.296;7.524;2022-12-07T16:36:19;15.77;;;10.30;;
21181;SDS011;10749;46.296;7.524;2022-12-07T16:38:47;17.57;;;10.67;;
21181;SDS011;10749;46.296;7.524;2022-12-07T16:41:12;15.83;;;10.33;;
21181;SDS011;10749;46.296;7.524;2022-12-07T16:43:38;16.60;;;10.07;;
21181;SDS011;10749;46.296;7.524;2022-12-07T16:46:03;16.97;;;10.50;;
21181;SDS011;10749;46.296;7.524;2022-12-07T16:48:29;16.73;;;9.93;;
21181;SDS011;10749;46.296;7.524;2022-12-07T16:50:54;18.73;;;12.47;;
21181;SDS011;10749;46.296;7.524;2022-12-07T16:53:20;20.60;;;10.83;;
21181;SDS011;10749;46.296;7.524;2022-12-07T16:55:47;17.93;;;11.30;;
21181;SDS011;10749;46.296;7.524;2022-12-07T16:58:13;18.50;;;12.00;;
21181;SDS011;10749;46.296;7.524;2022-12-07T17:00:39;16.40;;;10.67;;
21181;SDS011;10749;46.296;7.524;2022-12-07T17:03:06;17.93;;;11.23;;
21181;SDS011;10749;46.296;7.524;2022-12-07T17:05:31;21.27;;;11.23;;
21181;SDS011;10749;46.296;7.524;2022-12-07T17:07:57;18.20;;;11.03;;
21181;SDS011;10749;46.296;7.524;2022-12-07T17:10:23;18.87;;;12.07;;
21181;SDS011;10749;46.296;7.524;2022-12-07T17:12:49;21.33;;;11.50;;
21181;SDS011;10749;46.296;7.524;2022-12-07T17:15:15;16.30;;;11.20;;
21181;SDS011;10749;46.296;7.524;2022-12-07T17:17:41;20.47;;;12.83;;
21181;SDS011;10749;46.296;7.524;2022-12-07T17:20:06;24.67;;;13.20;;
21181;SDS011;10749;46.296;7.524;2022-12-07T17:22:32;19.57;;;12.70;;
21181;SDS011;10749;46.296;7.524;2022-12-07T17:24:57;18.83;;;12.97;;
21181;SDS011;10749;46.296;7.524;2022-12-07T17:27:24;18.57;;;12.87;;
21181;SDS011;10749;46.296;7.524;2022-12-07T17:29:49;22.43;;;13.60;;